createdAt,value
2023-03-24T00:00:35.743Z,60.06
2023-03-24T00:03:03.084Z,60.18
2023-03-24T00:05:30.965Z,60.20
2023-03-24T00:08:02.193Z,60.38
2023-03-24T00:10:35.138Z,60.71
2023-03-24T00:13:02.895Z,60.77
2023-03-24T00:15:31.569Z,60.86
2023-03-24T00:17:59.050Z,61.07
2023-03-24T00:20:26.876Z,61.27
2023-03-24T00:22:59.365Z,61.03
2023-03-24T00:25:36.217Z,61.74
2023-03-24T00:28:05.921Z,61.83
2023-03-24T00:30:35.228Z,61.90
2023-03-24T00:33:02.538Z,62.04
2023-03-24T00:35:29.616Z,62.28
2023-03-24T00:37:56.633Z,62.27
2023-03-24T00:40:23.621Z,62.20
2023-03-24T00:42:50.802Z,62.32
2023-03-24T00:45:23.076Z,62.50
2023-03-24T00:47:54.202Z,62.29
2023-03-24T00:50:27.162Z,62.56
2023-03-24T00:52:55.959Z,62.51
2023-03-24T00:55:23.249Z,62.71
2023-03-24T00:57:50.835Z,62.69
2023-03-24T01:00:21.357Z,62.67
2023-03-24T01:02:54.440Z,63.17
2023-03-24T01:05:23.453Z,63.19
2023-03-24T01:07:56.310Z,63.45
2023-03-24T01:10:26.994Z,63.23
2023-03-24T01:12:56.898Z,63.29
2023-03-24T01:15:27.908Z,63.19
2023-03-24T01:17:57.648Z,63.34
2023-03-24T01:20:25.252Z,63.68
2023-03-24T01:22:52.961Z,64.09
2023-03-24T01:25:23.179Z,63.77
2023-03-24T01:27:52.264Z,63.87
2023-03-24T01:30:23.259Z,63.80
2023-03-24T01:32:51.994Z,64.10
2023-03-24T01:35:22.499Z,64.39
2023-03-24T01:37:49.804Z,64.78
2023-03-24T01:40:20.157Z,64.90
2023-03-24T01:42:47.258Z,65.29
2023-03-24T01:45:56.279Z,65.21
2023-03-24T01:48:30.597Z,65.37
2023-03-24T01:51:03.886Z,65.52
2023-03-24T01:53:34.050Z,65.68
2023-03-24T01:56:03.814Z,65.35
2023-03-24T01:58:35.623Z,65.58
2023-03-24T02:01:04.684Z,65.66
2023-03-24T02:03:36.582Z,65.74
2023-03-24T02:06:06.799Z,65.79
2023-03-24T02:08:41.096Z,65.58
2023-03-24T02:11:09.394Z,65.61
2023-03-24T02:13:36.448Z,65.87
2023-03-24T02:16:24.077Z,65.66
2023-03-24T02:19:14.884Z,65.51
2023-03-24T02:22:26.305Z,66.08
2023-03-24T02:25:46.713Z,66.18
2023-03-24T02:28:32.067Z,65.96
2023-03-24T02:31:56.433Z,66.08
2023-03-24T02:35:15.539Z,65.94
2023-03-24T02:38:16.855Z,65.95
2023-03-24T02:40:56.343Z,65.99
2023-03-24T02:43:42.366Z,65.79
2023-03-24T02:46:21.367Z,66.24
2023-03-24T02:49:07.073Z,66.26
2023-03-24T02:51:43.464Z,65.97
2023-03-24T02:54:17.339Z,65.83
2023-03-24T02:56:54.167Z,65.96
2023-03-24T02:59:31.987Z,65.64
2023-03-24T03:02:06.999Z,65.81
2023-03-24T03:04:41.756Z,65.57
2023-03-24T03:07:11.590Z,65.63
2023-03-24T03:09:47.656Z,65.14
2023-03-24T03:12:19.362Z,65.57
2023-03-24T03:14:51.480Z,65.64
2023-03-24T03:17:23.673Z,65.21
2023-03-24T03:19:56.212Z,64.88
2023-03-24T03:22:28.817Z,65.12
2023-03-24T03:25:01.277Z,65.28
2023-03-24T03:27:38.891Z,64.95
2023-03-24T03:30:15.327Z,65.58
2023-03-24T03:32:54.312Z,65.68
2023-03-24T03:35:29.627Z,65.97
2023-03-24T03:38:09.833Z,65.61
2023-03-24T03:40:42.972Z,65.56
2023-03-24T03:43:11.709Z,66.06
2023-03-24T03:45:38.708Z,65.76
2023-03-24T03:48:06.576Z,65.65
2023-03-24T03:50:34.365Z,65.72
2023-03-24T03:53:01.360Z,65.63
2023-03-24T03:55:28.475Z,65.83
2023-03-24T03:57:55.849Z,65.96
2023-03-24T04:00:26.208Z,65.94
2023-03-24T04:03:27.809Z,65.87
2023-03-24T04:06:02.035Z,65.86
2023-03-24T04:08:45.116Z,66.02
2023-03-24T04:11:46.276Z,66.10
2023-03-24T04:14:38.123Z,66.52
2023-03-24T04:17:19.382Z,66.60
2023-03-24T04:20:06.393Z,66.45
2023-03-24T04:22:54.079Z,66.41
2023-03-24T04:25:35.186Z,66.28
2023-03-24T04:28:14.210Z,66.01
2023-03-24T04:30:46.368Z,65.53
2023-03-24T04:33:25.057Z,65.34
2023-03-24T04:36:01.601Z,65.51
2023-03-24T04:38:32.757Z,65.75
2023-03-24T04:41:01.418Z,66.11
2023-03-24T04:43:36.873Z,66.03
2023-03-24T04:46:05.577Z,66.26
2023-03-24T04:48:34.031Z,65.92
2023-03-24T04:51:04.006Z,66.05
2023-03-24T04:53:30.985Z,65.85
2023-03-24T04:56:24.592Z,66.11
2023-03-24T04:58:51.613Z,66.04
2023-03-24T05:01:21.384Z,66.07
2023-03-24T05:03:49.828Z,65.79
2023-03-24T05:06:17.429Z,66.04
2023-03-24T05:08:44.377Z,65.95
2023-03-24T05:11:11.682Z,66.10
2023-03-24T05:13:38.591Z,66.43
2023-03-24T05:16:06.918Z,66.19
2023-03-24T05:18:33.818Z,66.45
2023-03-24T05:21:02.021Z,66.32
2023-03-24T05:23:28.921Z,65.94
2023-03-24T05:25:55.945Z,65.77
2023-03-24T05:28:23.603Z,65.63
2023-03-24T05:30:50.712Z,66.26
2023-03-24T05:33:17.625Z,66.48
2023-03-24T05:35:44.826Z,67.07
2023-03-24T05:38:13.410Z,67.19
2023-03-24T05:40:41.137Z,66.81
2023-03-24T05:43:08.611Z,66.64
2023-03-24T05:45:35.781Z,66.58
2023-03-24T05:48:02.790Z,66.80
2023-03-24T05:50:29.900Z,66.22
2023-03-24T05:52:57.226Z,65.95
2023-03-24T05:55:25.563Z,65.63
2023-03-24T05:57:53.902Z,65.55
2023-03-24T06:00:21.259Z,65.58
2023-03-24T06:02:48.275Z,65.25
2023-03-24T06:05:15.400Z,65.19
2023-03-24T06:07:42.525Z,64.61
2023-03-24T06:10:11.373Z,64.24
2023-03-24T06:12:40.432Z,63.61
2023-03-24T06:15:10.084Z,63.49
2023-03-24T06:17:37.482Z,63.23
2023-03-24T06:20:11.706Z,62.86
2023-03-24T06:22:38.643Z,62.53
2023-03-24T06:25:09.614Z,61.71
2023-03-24T06:27:36.768Z,61.26
2023-03-24T06:30:08.544Z,60.29
2023-03-24T06:32:35.909Z,59.90
2023-03-24T06:35:03.595Z,58.78
2023-03-24T06:37:30.593Z,58.58
2023-03-24T06:39:57.660Z,57.83
2023-03-24T06:42:24.734Z,57.15
2023-03-24T06:44:51.651Z,56.99
2023-03-24T06:47:19.904Z,56.79
2023-03-24T06:49:46.860Z,56.66
2023-03-24T06:52:13.879Z,56.15
2023-03-24T06:54:42.117Z,56.19
2023-03-24T06:57:09.283Z,55.67
2023-03-24T06:59:36.232Z,54.58
2023-03-24T07:02:03.253Z,54.64
2023-03-24T07:04:36.405Z,54.07
2023-03-24T07:07:19.726Z,53.90
2023-03-24T07:09:50.698Z,54.07
2023-03-24T07:12:17.686Z,53.17
2023-03-24T07:14:44.686Z,53.79
2023-03-24T07:17:17.034Z,53.58
2023-03-24T07:19:48.355Z,53.40
2023-03-24T07:22:15.398Z,51.28
2023-03-24T07:24:42.476Z,49.37
2023-03-24T07:27:09.379Z,48.58
2023-03-24T07:29:36.375Z,47.87
2023-03-24T07:32:03.960Z,48.01
2023-03-24T07:34:32.068Z,47.65
2023-03-24T07:37:01.745Z,47.24
2023-03-24T07:39:29.194Z,46.78
2023-03-24T07:41:56.973Z,45.87
2023-03-24T07:44:23.945Z,45.50
2023-03-24T07:46:50.931Z,45.15
2023-03-24T07:49:19.831Z,45.82
2023-03-24T07:51:47.199Z,45.05
2023-03-24T07:54:15.435Z,43.95
2023-03-24T07:56:42.423Z,43.97
2023-03-24T07:59:12.334Z,43.86
2023-03-24T08:01:39.384Z,44.15
2023-03-24T08:04:06.791Z,44.60
2023-03-24T08:06:34.720Z,45.19
2023-03-24T08:09:01.714Z,45.75
2023-03-24T08:11:30.520Z,46.15
2023-03-24T08:13:58.388Z,46.17
2023-03-24T08:16:25.467Z,46.77
2023-03-24T08:18:52.871Z,46.79
2023-03-24T08:21:19.930Z,46.91
2023-03-24T08:23:47.074Z,46.64
2023-03-24T08:26:15.176Z,47.00
2023-03-24T08:28:43.642Z,47.01
2023-03-24T08:31:10.918Z,47.29
2023-03-24T08:33:37.927Z,47.17
2023-03-24T08:36:06.595Z,46.65
2023-03-24T08:38:33.588Z,46.79
2023-03-24T08:41:06.440Z,46.83
2023-03-24T08:43:35.801Z,46.55
2023-03-24T08:46:10.530Z,46.59
2023-03-24T08:48:41.184Z,46.78
2023-03-24T08:51:13.856Z,46.09
2023-03-24T08:53:41.885Z,45.40
2023-03-24T08:56:10.339Z,44.83
2023-03-24T08:58:37.983Z,44.14
2023-03-24T09:01:07.841Z,44.44
2023-03-24T09:03:35.930Z,44.51
2023-03-24T09:06:03.180Z,43.54
2023-03-24T09:08:30.215Z,43.46
2023-03-24T09:10:57.304Z,43.24
2023-03-24T09:13:25.025Z,42.93
2023-03-24T09:15:58.696Z,42.67
2023-03-24T09:18:27.901Z,42.92
2023-03-24T09:20:55.247Z,43.14
2023-03-24T09:23:22.698Z,42.72
2023-03-24T09:25:50.659Z,42.62
2023-03-24T09:28:18.285Z,42.36
2023-03-24T09:30:45.396Z,42.21
2023-03-24T09:33:12.691Z,42.22
2023-03-24T09:35:41.644Z,41.77
2023-03-24T09:38:11.482Z,41.39
2023-03-24T09:40:40.482Z,40.68
2023-03-24T09:43:18.144Z,39.85
2023-03-24T09:45:51.824Z,39.41
2023-03-24T09:48:35.621Z,39.15
2023-03-24T09:51:09.485Z,39.86
2023-03-24T09:53:46.516Z,38.48
2023-03-24T09:56:17.167Z,35.94
2023-03-24T09:58:52.954Z,34.69
2023-03-24T10:01:21.162Z,32.82
2023-03-24T10:03:48.921Z,31.70
2023-03-24T10:06:26.001Z,29.33
2023-03-24T10:09:14.274Z,29.85
2023-03-24T10:11:50.808Z,29.80
2023-03-24T10:14:42.153Z,30.33
2023-03-24T10:17:25.425Z,32.04
2023-03-24T10:20:00.677Z,32.39
2023-03-24T10:22:38.861Z,32.95
2023-03-24T10:25:19.212Z,33.91
2023-03-24T10:27:52.920Z,34.95
2023-03-24T10:30:23.961Z,35.77
2023-03-24T10:32:52.771Z,35.24
2023-03-24T10:35:28.449Z,35.47
2023-03-24T10:38:01.225Z,34.76
2023-03-24T10:40:33.752Z,33.25
2023-03-24T10:43:07.358Z,33.73
2023-03-24T10:45:41.344Z,33.92
2023-03-24T10:48:13.589Z,34.73
2023-03-24T10:50:46.798Z,35.57
2023-03-24T10:53:21.035Z,35.84
2023-03-24T10:55:51.214Z,35.37
2023-03-24T10:58:37.451Z,34.90
2023-03-24T11:01:22.940Z,33.50
2023-03-24T11:03:55.189Z,33.39
2023-03-24T11:06:22.364Z,33.10
2023-03-24T11:09:10.434Z,32.98
2023-03-24T11:11:40.185Z,32.72
2023-03-24T11:14:23.788Z,32.87
2023-03-24T11:16:51.571Z,32.37
2023-03-24T11:19:22.506Z,32.14
2023-03-24T11:21:59.507Z,32.74
2023-03-24T11:24:29.632Z,33.18
2023-03-24T11:27:01.643Z,33.21
2023-03-24T11:29:32.634Z,33.77
2023-03-24T11:32:03.328Z,34.01
2023-03-24T11:34:34.373Z,32.60
2023-03-24T11:37:08.234Z,33.39
2023-03-24T11:39:36.690Z,32.42
2023-03-24T11:42:17.258Z,31.63
2023-03-24T11:44:51.257Z,31.51
2023-03-24T11:47:31.501Z,31.28
2023-03-24T11:50:17.576Z,31.26
2023-03-24T11:52:52.559Z,30.81
2023-03-24T11:55:33.948Z,29.80
2023-03-24T11:58:09.716Z,30.23
2023-03-24T12:00:44.529Z,30.87
2023-03-24T12:04:04.244Z,31.22
2023-03-24T12:06:49.968Z,32.03
2023-03-24T12:09:32.549Z,32.27
2023-03-24T12:12:25.813Z,32.47
2023-03-24T12:15:28.504Z,31.94
2023-03-24T12:18:19.864Z,32.00
2023-03-24T12:20:57.681Z,32.43
2023-03-24T12:23:37.772Z,31.75
2023-03-24T12:26:17.358Z,31.59
2023-03-24T12:28:57.254Z,31.99
2023-03-24T12:32:12.380Z,31.24
2023-03-24T12:35:09.506Z,30.67
2023-03-24T12:37:49.186Z,29.58
2023-03-24T12:40:50.954Z,27.45
2023-03-24T12:43:33.973Z,25.11
2023-03-24T12:46:12.172Z,25.25
2023-03-24T12:48:59.755Z,24.67
2023-03-24T12:51:42.593Z,23.71
2023-03-24T12:54:29.881Z,22.76
2023-03-24T12:57:03.297Z,22.58
2023-03-24T12:59:38.989Z,22.55
2023-03-24T13:02:24.014Z,22.84
2023-03-24T13:04:59.819Z,23.79
2023-03-24T13:07:29.192Z,24.25
2023-03-24T13:10:06.896Z,23.76
2023-03-24T13:12:43.029Z,23.58
2023-03-24T13:15:19.603Z,24.05
2023-03-24T13:17:53.456Z,23.97
2023-03-24T13:20:29.224Z,23.65
2023-03-24T13:23:05.810Z,23.58
2023-03-24T13:25:49.982Z,22.89
2023-03-24T13:28:27.870Z,22.76
2023-03-24T13:30:57.045Z,23.20
2023-03-24T13:33:31.628Z,23.38
2023-03-24T13:36:22.346Z,24.10
2023-03-24T13:38:54.401Z,24.41
2023-03-24T13:41:26.862Z,24.27
2023-03-24T13:44:02.785Z,24.64
2023-03-24T13:46:30.303Z,25.64
2023-03-24T13:49:00.700Z,26.04
2023-03-24T13:51:31.934Z,26.06
2023-03-24T13:54:05.857Z,26.88
2023-03-24T13:56:36.970Z,26.94
2023-03-24T13:59:30.448Z,28.06
2023-03-24T14:02:21.931Z,27.85
2023-03-24T14:05:04.971Z,27.79
2023-03-24T14:07:44.345Z,27.60
2023-03-24T14:10:43.502Z,26.09
2023-03-24T14:13:23.189Z,25.33
2023-03-24T14:15:52.834Z,25.38
2023-03-24T14:18:42.591Z,24.75
2023-03-24T14:21:11.462Z,25.03
2023-03-24T14:23:43.190Z,26.05
2023-03-24T14:26:15.469Z,26.76
2023-03-24T14:28:46.611Z,26.87
2023-03-24T14:31:24.779Z,27.23
2023-03-24T14:34:20.648Z,27.55
2023-03-24T14:37:07.520Z,27.68
2023-03-24T14:39:41.682Z,28.22
2023-03-24T14:42:41.642Z,28.23
2023-03-24T14:45:51.171Z,28.44
2023-03-24T14:48:32.895Z,27.87
2023-03-24T14:51:07.666Z,28.15
2023-03-24T14:53:39.355Z,28.94
2023-03-24T14:56:14.788Z,29.20
2023-03-24T14:58:47.005Z,29.52
2023-03-24T15:01:15.636Z,29.48
2023-03-24T15:03:55.325Z,29.81
2023-03-24T15:06:24.074Z,30.18
2023-03-24T15:08:55.154Z,30.37
2023-03-24T15:11:27.455Z,30.89
2023-03-24T15:13:57.288Z,31.07
2023-03-24T15:16:27.047Z,31.94
2023-03-24T15:21:32.339Z,32.35
2023-03-24T15:24:02.079Z,32.00
2023-03-24T15:26:31.665Z,31.82
2023-03-24T15:29:02.094Z,32.07
2023-03-24T15:31:32.570Z,32.32
2023-03-24T15:34:23.798Z,32.49
2023-03-24T15:36:54.869Z,32.32
2023-03-24T15:39:27.782Z,32.40
2023-03-24T15:41:55.594Z,32.84
2023-03-24T15:44:27.356Z,32.51
2023-03-24T15:46:57.608Z,32.66
2023-03-24T15:49:29.886Z,32.89
2023-03-24T15:51:59.954Z,32.94
2023-03-24T15:54:31.971Z,32.70
2023-03-24T15:57:18.251Z,33.30
2023-03-24T15:59:48.602Z,33.01
2023-03-24T16:02:29.659Z,33.45
2023-03-24T16:05:11.017Z,33.30
2023-03-24T16:07:41.265Z,34.11
2023-03-24T16:10:32.306Z,34.29
2023-03-24T16:13:14.525Z,34.64
2023-03-24T16:15:44.749Z,34.42
2023-03-24T16:18:18.216Z,34.72
2023-03-24T16:20:45.275Z,35.56
2023-03-24T16:23:14.919Z,35.95
2023-03-24T16:25:43.393Z,35.82
2023-03-24T16:28:13.348Z,36.54
2023-03-24T16:30:44.134Z,37.23
2023-03-24T16:33:12.593Z,37.00
2023-03-24T16:35:39.728Z,37.32
2023-03-24T16:38:06.853Z,37.91
2023-03-24T16:40:39.289Z,38.15
2023-03-24T16:43:07.610Z,38.72
2023-03-24T16:45:35.507Z,38.64
2023-03-24T16:48:02.841Z,39.38
2023-03-24T16:50:36.770Z,39.26
2023-03-24T16:53:04.721Z,39.79
2023-03-24T16:55:31.859Z,39.86
2023-03-24T16:57:59.104Z,40.30
2023-03-24T17:00:29.788Z,40.72
2023-03-24T17:02:59.901Z,41.48
2023-03-24T17:05:31.807Z,42.02
2023-03-24T17:07:58.960Z,41.94
2023-03-24T17:10:28.068Z,41.85
2023-03-24T17:12:57.448Z,42.01
2023-03-24T17:15:28.812Z,42.17
2023-03-24T17:17:56.548Z,42.12
2023-03-24T17:20:25.025Z,42.13
2023-03-24T17:22:56.564Z,42.61
2023-03-24T17:25:24.258Z,42.72
2023-03-24T17:27:51.745Z,43.37
2023-03-24T17:30:21.835Z,43.98
2023-03-24T17:32:50.505Z,44.48
2023-03-24T17:35:20.268Z,44.85
2023-03-24T17:37:48.120Z,45.07
2023-03-24T17:40:17.940Z,44.98
2023-03-24T17:42:46.741Z,45.45
2023-03-24T17:45:17.308Z,44.89
2023-03-24T17:47:45.451Z,45.29
2023-03-24T17:50:14.847Z,46.17
2023-03-24T17:52:46.431Z,45.86
2023-03-24T17:55:16.254Z,46.07
2023-03-24T17:57:44.319Z,46.10
2023-03-24T18:00:14.479Z,46.29
2023-03-24T18:02:43.465Z,46.75
2023-03-24T18:05:13.364Z,47.01
2023-03-24T18:07:40.693Z,47.53
2023-03-24T18:10:09.440Z,47.73
2023-03-24T18:12:37.047Z,47.56
2023-03-24T18:15:06.963Z,47.74
2023-03-24T18:17:34.114Z,48.32
2023-03-24T18:20:09.798Z,48.14
2023-03-24T18:22:40.749Z,48.57
2023-03-24T18:25:10.531Z,48.86
2023-03-24T18:27:37.923Z,49.03
2023-03-24T18:30:07.737Z,49.29
2023-03-24T18:32:35.836Z,49.23
2023-03-24T18:35:02.841Z,49.15
2023-03-24T18:37:30.216Z,48.96
2023-03-24T18:39:58.516Z,48.37
2023-03-24T18:42:25.468Z,48.54
2023-03-24T18:44:52.615Z,48.21
2023-03-24T18:47:20.484Z,48.62
2023-03-24T18:49:47.404Z,48.67
2023-03-24T18:52:17.898Z,48.43
2023-03-24T18:54:45.669Z,48.41
2023-03-24T18:57:14.233Z,48.36
2023-03-24T18:59:41.363Z,48.44
2023-03-24T19:02:10.923Z,48.64
2023-03-24T19:04:38.141Z,49.17
2023-03-24T19:07:08.034Z,49.38
2023-03-24T19:09:35.578Z,49.54
2023-03-24T19:12:02.603Z,49.32
2023-03-24T19:14:31.509Z,49.67
2023-03-24T19:16:59.635Z,49.61
2023-03-24T19:19:27.923Z,49.86
2023-03-24T19:21:54.845Z,49.66
2023-03-24T19:24:22.096Z,50.39
2023-03-24T19:26:48.977Z,50.83
2023-03-24T19:29:16.503Z,50.85
2023-03-24T19:31:45.267Z,50.67
2023-03-24T19:34:12.212Z,50.74
2023-03-24T19:36:44.265Z,50.96
2023-03-24T19:39:15.006Z,50.88
2023-03-24T19:41:42.049Z,50.82
2023-03-24T19:44:09.052Z,50.97
2023-03-24T19:46:36.305Z,50.74
2023-03-24T19:49:04.719Z,51.10
2023-03-24T19:51:31.625Z,51.72
2023-03-24T19:53:58.679Z,51.54
2023-03-24T19:56:25.906Z,51.24
2023-03-24T19:58:53.169Z,51.07
2023-03-24T20:01:21.432Z,51.27
2023-03-24T20:03:48.560Z,51.36
2023-03-24T20:06:19.532Z,51.48
2023-03-24T20:08:46.808Z,51.24
2023-03-24T20:11:13.999Z,51.44
2023-03-24T20:13:41.406Z,51.46
2023-03-24T20:16:08.397Z,51.47
2023-03-24T20:18:35.762Z,51.40
2023-03-24T20:21:03.704Z,51.15
2023-03-24T20:23:32.031Z,51.21
2023-03-24T20:26:00.435Z,52.09
2023-03-24T20:28:28.086Z,52.48
2023-03-24T20:30:59.351Z,52.31
2023-03-24T20:33:28.532Z,52.79
2023-03-24T20:35:56.679Z,52.64
2023-03-24T20:38:24.350Z,52.73
2023-03-24T20:41:01.144Z,52.54
2023-03-24T20:43:28.728Z,52.84
2023-03-24T20:45:57.409Z,52.83
2023-03-24T20:48:25.611Z,53.17
2023-03-24T20:50:52.668Z,53.20
2023-03-24T20:53:20.599Z,53.18
2023-03-24T20:55:59.513Z,53.04
2023-03-24T20:58:27.413Z,53.44
2023-03-24T21:00:55.022Z,53.33
2023-03-24T21:03:22.184Z,53.26
2023-03-24T21:05:49.545Z,53.60
2023-03-24T21:08:17.692Z,53.67
2023-03-24T21:10:44.764Z,54.08
2023-03-24T21:13:13.194Z,54.30
2023-03-24T21:15:44.665Z,54.34
2023-03-24T21:18:11.930Z,54.93
2023-03-24T21:20:39.909Z,55.36
2023-03-24T21:23:09.388Z,55.76
2023-03-24T21:25:37.514Z,55.56
2023-03-24T21:28:05.250Z,55.41
2023-03-24T21:30:33.655Z,55.84
2023-03-24T21:33:01.334Z,55.97
2023-03-24T21:35:28.474Z,55.73
2023-03-24T21:37:56.049Z,55.63
2023-03-24T21:40:25.306Z,55.86
2023-03-24T21:42:55.777Z,56.02
2023-03-24T21:45:23.802Z,56.44
2023-03-24T21:47:55.116Z,56.74
2023-03-24T21:50:25.626Z,56.99
2023-03-24T21:52:54.549Z,57.56
2023-03-24T21:55:22.940Z,58.15
2023-03-24T21:57:51.699Z,58.36
2023-03-24T22:00:23.584Z,58.44
2023-03-24T22:02:54.433Z,58.43
2023-03-24T22:05:24.243Z,58.81
2023-03-24T22:07:52.558Z,58.66
2023-03-24T22:10:23.564Z,57.99
2023-03-24T22:12:51.546Z,58.00
2023-03-24T22:15:19.804Z,58.42
2023-03-24T22:17:46.968Z,58.51
2023-03-24T22:20:15.784Z,58.53
2023-03-24T22:22:42.832Z,58.56
2023-03-24T22:25:13.906Z,58.28
2023-03-24T22:27:41.318Z,58.20
2023-03-24T22:30:11.913Z,58.10
2023-03-24T22:32:39.365Z,58.09
2023-03-24T22:35:08.080Z,57.85
2023-03-24T22:37:36.563Z,58.08
2023-03-24T22:40:05.624Z,58.02
2023-03-24T22:42:32.712Z,57.97
2023-03-24T22:44:59.591Z,58.06
2023-03-24T22:47:27.495Z,57.77
2023-03-24T22:49:54.709Z,57.81
2023-03-24T22:52:21.657Z,57.64
2023-03-24T22:54:50.010Z,57.33
2023-03-24T22:57:18.685Z,57.22
2023-03-24T22:59:45.873Z,56.89
2023-03-24T23:02:13.041Z,56.97
2023-03-24T23:04:41.247Z,56.94
2023-03-24T23:07:09.357Z,56.67
2023-03-24T23:09:39.965Z,56.73
2023-03-24T23:12:08.998Z,56.62
2023-03-24T23:14:38.023Z,56.21
2023-03-24T23:17:05.144Z,56.03
2023-03-24T23:19:34.071Z,56.12
2023-03-24T23:22:01.117Z,56.22
2023-03-24T23:24:28.749Z,56.01
2023-03-24T23:26:55.751Z,56.19
2023-03-24T23:29:24.038Z,56.06
2023-03-24T23:31:51.293Z,56.31
2023-03-24T23:34:18.280Z,56.31
2023-03-24T23:36:49.726Z,56.29
2023-03-24T23:39:17.222Z,56.27
2023-03-24T23:41:44.402Z,56.34
2023-03-24T23:44:11.438Z,56.47
2023-03-24T23:46:39.831Z,56.33
2023-03-24T23:49:09.359Z,56.48
2023-03-24T23:51:36.532Z,56.69
2023-03-24T23:54:03.938Z,56.64
2023-03-24T23:56:36.622Z,57.03
2023-03-24T23:59:05.403Z,56.85
